sensor_id;sensor_type;location;lat;lon;timestamp;pressure;altitude;pressure_sealevel;temperature;humidity
74230;BME280;62589;12.568;99.958;2024-03-22T00:02:15;100750.25;;;32.14;52.05
74230;BME280;62589;12.568;99.958;2024-03-22T00:04:42;100761.34;;;32.14;51.59
74230;BME280;62589;12.568;99.958;2024-03-22T00:07:09;100758.63;;;32.18;50.82
74230;BME280;62589;12.568;99.958;2024-03-22T00:09:35;100763.78;;;32.19;50.92
74230;BME280;62589;12.568;99.958;2024-03-22T00:12:02;100760.59;;;32.17;50.21
74230;BME280;62589;12.568;99.958;2024-03-22T00:14:30;100759.78;;;32.17;50.02
74230;BME280;62589;12.568;99.958;2024-03-22T00:16:56;100766.22;;;32.21;49.95
74230;BME280;62589;12.568;99.958;2024-03-22T00:19:23;100773.41;;;32.29;50.10
74230;BME280;62589;12.568;99.958;2024-03-22T00:21:50;100796.09;;;32.34;50.23
74230;BME280;62589;12.568;99.958;2024-03-22T00:24:17;100799.31;;;32.40;49.92
74230;BME280;62589;12.568;99.958;2024-03-22T00:26:43;100806.88;;;32.39;49.96
74230;BME280;62589;12.568;99.958;2024-03-22T00:29:10;100794.94;;;32.42;50.14
74230;BME280;62589;12.568;99.958;2024-03-22T00:31:36;100802.94;;;32.48;49.88
74230;BME280;62589;12.568;99.958;2024-03-22T00:34:03;100801.78;;;32.52;49.29
74230;BME280;62589;12.568;99.958;2024-03-22T00:36:30;100814.09;;;32.51;48.87
74230;BME280;62589;12.568;99.958;2024-03-22T00:38:56;100821.28;;;32.56;49.18
74230;BME280;62589;12.568;99.958;2024-03-22T00:41:23;100819.72;;;32.58;49.12
74230;BME280;62589;12.568;99.958;2024-03-22T00:43:50;100824.50;;;32.65;49.40
74230;BME280;62589;12.568;99.958;2024-03-22T00:46:17;100833.38;;;32.74;48.82
74230;BME280;62589;12.568;99.958;2024-03-22T00:48:43;100825.47;;;32.80;48.87
74230;BME280;62589;12.568;99.958;2024-03-22T00:51:10;100826.69;;;32.82;48.83
74230;BME280;62589;12.568;99.958;2024-03-22T00:53:37;100843.03;;;32.94;48.43
74230;BME280;62589;12.568;99.958;2024-03-22T00:56:03;100848.59;;;32.94;48.58
74230;BME280;62589;12.568;99.958;2024-03-22T00:58:30;100843.91;;;33.02;48.51
74230;BME280;62589;12.568;99.958;2024-03-22T01:00:57;100852.25;;;33.09;48.35
74230;BME280;62589;12.568;99.958;2024-03-22T01:03:24;100851.88;;;33.10;48.10
74230;BME280;62589;12.568;99.958;2024-03-22T01:05:50;100859.47;;;33.17;48.15
74230;BME280;62589;12.568;99.958;2024-03-22T01:08:17;100862.72;;;33.26;47.68
74230;BME280;62589;12.568;99.958;2024-03-22T01:10:44;100860.75;;;33.27;47.94
74230;BME280;62589;12.568;99.958;2024-03-22T01:13:10;100879.09;;;33.35;47.98
74230;BME280;62589;12.568;99.958;2024-03-22T01:15:37;100870.34;;;33.36;47.96
74230;BME280;62589;12.568;99.958;2024-03-22T01:18:04;100875.94;;;33.40;47.75
74230;BME280;62589;12.568;99.958;2024-03-22T01:20:30;100886.28;;;33.46;47.75
74230;BME280;62589;12.568;99.958;2024-03-22T01:22:59;100881.94;;;33.49;47.97
74230;BME280;62589;12.568;99.958;2024-03-22T01:25:27;100878.78;;;33.51;47.86
74230;BME280;62589;12.568;99.958;2024-03-22T01:27:55;100882.75;;;33.53;47.54
74230;BME280;62589;12.568;99.958;2024-03-22T01:30:22;100884.78;;;33.60;47.92
74230;BME280;62589;12.568;99.958;2024-03-22T01:32:49;100885.63;;;33.64;47.67
74230;BME280;62589;12.568;99.958;2024-03-22T01:35:15;100882.44;;;33.72;47.96
74230;BME280;62589;12.568;99.958;2024-03-22T01:37:42;100873.69;;;33.70;47.80
74230;BME280;62589;12.568;99.958;2024-03-22T01:40:09;100872.19;;;33.80;47.98
74230;BME280;62589;12.568;99.958;2024-03-22T01:42:36;100879.75;;;33.87;47.51
74230;BME280;62589;12.568;99.958;2024-03-22T01:45:03;100866.22;;;33.92;47.66
74230;BME280;62589;12.568;99.958;2024-03-22T01:47:30;100858.69;;;33.96;47.53
74230;BME280;62589;12.568;99.958;2024-03-22T01:49:57;100878.22;;;34.07;47.51
74230;BME280;62589;12.568;99.958;2024-03-22T01:52:24;100869.47;;;34.16;47.45
74230;BME280;62589;12.568;99.958;2024-03-22T01:54:50;100870.69;;;34.22;47.33
74230;BME280;62589;12.568;99.958;2024-03-22T01:57:17;100860.41;;;34.29;47.19
74230;BME280;62589;12.568;99.958;2024-03-22T01:59:44;100865.16;;;34.39;47.03
74230;BME280;62589;12.568;99.958;2024-03-22T02:02:12;100862.81;;;34.49;46.73
74230;BME280;62589;12.568;99.958;2024-03-22T02:04:39;100860.41;;;34.58;46.74
74230;BME280;62589;12.568;99.958;2024-03-22T02:07:06;100862.38;;;34.61;45.01
74230;BME280;62589;12.568;99.958;2024-03-22T02:09:33;100859.59;;;34.71;45.03
74230;BME280;62589;12.568;99.958;2024-03-22T02:12:00;100862.78;;;34.77;44.41
74230;BME280;62589;12.568;99.958;2024-03-22T02:14:26;100858.03;;;34.81;44.98
74230;BME280;62589;12.568;99.958;2024-03-22T02:16:53;100881.13;;;34.96;44.33
74230;BME280;62589;12.568;99.958;2024-03-22T02:19:20;100870.75;;;35.03;44.04
74230;BME280;62589;12.568;99.958;2024-03-22T02:21:46;100871.56;;;35.07;44.64
74230;BME280;62589;12.568;99.958;2024-03-22T02:24:13;100867.53;;;35.19;44.10
74230;BME280;62589;12.568;99.958;2024-03-22T02:26:39;100869.94;;;35.31;44.07
74230;BME280;62589;12.568;99.958;2024-03-22T02:29:06;100863.13;;;35.36;44.19
74230;BME280;62589;12.568;99.958;2024-03-22T02:31:33;100865.09;;;35.46;44.02
74230;BME280;62589;12.568;99.958;2024-03-22T02:33:59;100865.06;;;35.53;44.40
74230;BME280;62589;12.568;99.958;2024-03-22T02:36:27;100861.81;;;35.65;44.52
74230;BME280;62589;12.568;99.958;2024-03-22T02:38:54;100861.00;;;35.72;44.58
74230;BME280;62589;12.568;99.958;2024-03-22T02:41:21;100855.38;;;35.79;44.40
74230;BME280;62589;12.568;99.958;2024-03-22T02:43:48;100851.34;;;35.91;44.08
74230;BME280;62589;12.568;99.958;2024-03-22T02:46:15;100848.13;;;35.96;43.58
74230;BME280;62589;12.568;99.958;2024-03-22T02:48:41;100841.69;;;36.02;43.44
74230;BME280;62589;12.568;99.958;2024-03-22T02:51:08;100836.09;;;36.06;42.60
74230;BME280;62589;12.568;99.958;2024-03-22T02:53:34;100838.47;;;36.07;42.42
74230;BME280;62589;12.568;99.958;2024-03-22T02:56:01;100836.84;;;36.13;40.83
74230;BME280;62589;12.568;99.958;2024-03-22T02:58:28;100851.56;;;36.25;40.49
74230;BME280;62589;12.568;99.958;2024-03-22T03:00:54;100851.16;;;36.26;40.18
74230;BME280;62589;12.568;99.958;2024-03-22T03:03:21;100843.16;;;36.28;40.39
74230;BME280;62589;12.568;99.958;2024-03-22T03:05:48;100831.06;;;36.38;40.98
74230;BME280;62589;12.568;99.958;2024-03-22T03:08:14;100831.41;;;36.47;41.07
74230;BME280;62589;12.568;99.958;2024-03-22T03:10:41;100824.50;;;36.59;41.44
74230;BME280;62589;12.568;99.958;2024-03-22T03:13:08;100830.09;;;36.59;40.63
74230;BME280;62589;12.568;99.958;2024-03-22T03:15:34;100830.06;;;36.63;39.78
74230;BME280;62589;12.568;99.958;2024-03-22T03:18:01;100822.03;;;36.68;40.66
74230;BME280;62589;12.568;99.958;2024-03-22T03:20:27;100829.56;;;36.78;40.05
74230;BME280;62589;12.568;99.958;2024-03-22T03:22:54;100824.69;;;36.86;41.17
74230;BME280;62589;12.568;99.958;2024-03-22T03:25:21;100823.41;;;36.94;41.33
74230;BME280;62589;12.568;99.958;2024-03-22T03:27:48;100826.50;;;37.03;41.79
74230;BME280;62589;12.568;99.958;2024-03-22T03:30:14;100826.44;;;37.10;41.95
74230;BME280;62589;12.568;99.958;2024-03-22T03:32:41;100820.03;;;37.10;41.14
74230;BME280;62589;12.568;99.958;2024-03-22T03:35:08;100814.38;;;37.17;41.03
74230;BME280;62589;12.568;99.958;2024-03-22T03:37:34;100818.31;;;37.23;40.94
74230;BME280;62589;12.568;99.958;2024-03-22T03:40:01;100813.50;;;37.24;40.28
74230;BME280;62589;12.568;99.958;2024-03-22T03:42:28;100811.44;;;37.28;40.37
74230;BME280;62589;12.568;99.958;2024-03-22T03:44:54;100805.84;;;37.28;40.55
74230;BME280;62589;12.568;99.958;2024-03-22T03:47:21;100801.75;;;37.36;40.63
74230;BME280;62589;12.568;99.958;2024-03-22T03:49:48;100788.50;;;37.40;39.62
74230;BME280;62589;12.568;99.958;2024-03-22T03:52:14;100774.97;;;37.35;39.24
74230;BME280;62589;12.568;99.958;2024-03-22T03:54:41;100782.91;;;37.40;38.77
74230;BME280;62589;12.568;99.958;2024-03-22T03:57:08;100776.66;;;37.29;38.03
74230;BME280;62589;12.568;99.958;2024-03-22T03:59:34;100766.16;;;37.36;38.75
74230;BME280;62589;12.568;99.958;2024-03-22T04:02:01;100778.41;;;37.46;38.51
74230;BME280;62589;12.568;99.958;2024-03-22T04:04:28;100765.56;;;37.48;38.50
74230;BME280;62589;12.568;99.958;2024-03-22T04:06:54;100775.47;;;37.57;38.88
74230;BME280;62589;12.568;99.958;2024-03-22T04:09:21;100769.03;;;37.60;39.28
74230;BME280;62589;12.568;99.958;2024-03-22T04:11:47;100763.34;;;37.63;38.59
74230;BME280;62589;12.568;99.958;2024-03-22T04:14:14;100753.75;;;37.64;38.80
74230;BME280;62589;12.568;99.958;2024-03-22T04:16:41;100750.50;;;37.69;39.02
74230;BME280;62589;12.568;99.958;2024-03-22T04:19:08;100749.19;;;37.77;39.72
74230;BME280;62589;12.568;99.958;2024-03-22T04:21:34;100743.97;;;37.79;38.86
74230;BME280;62589;12.568;99.958;2024-03-22T04:24:01;100745.84;;;37.86;38.85
74230;BME280;62589;12.568;99.958;2024-03-22T04:26:28;100747.78;;;37.89;39.11
74230;BME280;62589;12.568;99.958;2024-03-22T04:28:54;100745.78;;;37.90;37.35
74230;BME280;62589;12.568;99.958;2024-03-22T04:31:21;100725.81;;;37.88;38.56
74230;BME280;62589;12.568;99.958;2024-03-22T04:33:48;100730.13;;;37.92;38.13
74230;BME280;62589;12.568;99.958;2024-03-22T04:36:15;100723.78;;;37.88;38.10
74230;BME280;62589;12.568;99.958;2024-03-22T04:38:42;100722.16;;;37.91;37.42
74230;BME280;62589;12.568;99.958;2024-03-22T04:41:08;100720.50;;;37.93;37.71
74230;BME280;62589;12.568;99.958;2024-03-22T04:43:35;100717.34;;;37.91;37.61
74230;BME280;62589;12.568;99.958;2024-03-22T04:46:02;100717.38;;;37.88;38.10
74230;BME280;62589;12.568;99.958;2024-03-22T04:48:28;100711.78;;;37.88;38.20
74230;BME280;62589;12.568;99.958;2024-03-22T04:50:56;100721.78;;;37.89;37.10
74230;BME280;62589;12.568;99.958;2024-03-22T04:53:23;100706.94;;;37.92;38.13
74230;BME280;62589;12.568;99.958;2024-03-22T04:55:50;100710.84;;;37.98;38.38
74230;BME280;62589;12.568;99.958;2024-03-22T04:58:18;100710.88;;;37.94;38.91
74230;BME280;62589;12.568;99.958;2024-03-22T05:00:46;100707.56;;;38.03;39.06
74230;BME280;62589;12.568;99.958;2024-03-22T05:03:13;100709.13;;;38.04;39.07
74230;BME280;62589;12.568;99.958;2024-03-22T05:05:40;100697.84;;;38.07;38.45
74230;BME280;62589;12.568;99.958;2024-03-22T05:08:08;100683.41;;;38.09;38.42
74230;BME280;62589;12.568;99.958;2024-03-22T05:10:35;100691.31;;;38.17;39.27
74230;BME280;62589;12.568;99.958;2024-03-22T05:13:02;100691.34;;;38.14;39.30
74230;BME280;62589;12.568;99.958;2024-03-22T05:15:29;100686.63;;;38.07;40.14
74230;BME280;62589;12.568;99.958;2024-03-22T05:17:57;100691.59;;;38.00;40.65
74230;BME280;62589;12.568;99.958;2024-03-22T05:20:24;100691.41;;;38.10;41.03
74230;BME280;62589;12.568;99.958;2024-03-22T05:22:51;100692.09;;;37.64;42.16
74230;BME280;62589;12.568;99.958;2024-03-22T05:25:18;100678.19;;;37.61;42.70
74230;BME280;62589;12.568;99.958;2024-03-22T05:27:45;100681.78;;;37.61;42.39
74230;BME280;62589;12.568;99.958;2024-03-22T05:30:13;100680.31;;;37.23;42.06
74230;BME280;62589;12.568;99.958;2024-03-22T05:32:40;100674.59;;;37.33;42.47
74230;BME280;62589;12.568;99.958;2024-03-22T05:35:08;100668.56;;;37.35;42.67
74230;BME280;62589;12.568;99.958;2024-03-22T05:37:35;100669.31;;;37.39;42.73
74230;BME280;62589;12.568;99.958;2024-03-22T05:40:02;100673.31;;;37.38;42.63
74230;BME280;62589;12.568;99.958;2024-03-22T05:42:32;100664.31;;;37.23;41.64
74230;BME280;62589;12.568;99.958;2024-03-22T05:44:59;100666.75;;;37.21;42.50
74230;BME280;62589;12.568;99.958;2024-03-22T05:47:25;100655.50;;;37.25;42.72
74230;BME280;62589;12.568;99.958;2024-03-22T05:49:52;100651.06;;;37.27;43.07
74230;BME280;62589;12.568;99.958;2024-03-22T05:52:19;100641.91;;;37.23;43.28
74230;BME280;62589;12.568;99.958;2024-03-22T05:54:45;100641.72;;;37.07;44.15
74230;BME280;62589;12.568;99.958;2024-03-22T05:57:12;100621.94;;;36.94;44.15
74230;BME280;62589;12.568;99.958;2024-03-22T05:59:39;100617.28;;;37.11;42.90
74230;BME280;62589;12.568;99.958;2024-03-22T06:02:06;100619.75;;;37.05;41.62
74230;BME280;62589;12.568;99.958;2024-03-22T06:04:33;100604.03;;;37.19;42.51
74230;BME280;62589;12.568;99.958;2024-03-22T06:07:00;100613.13;;;36.96;42.91
74230;BME280;62589;12.568;99.958;2024-03-22T06:09:29;100604.81;;;37.19;43.28
74230;BME280;62589;12.568;99.958;2024-03-22T06:12:13;100604.69;;;36.99;43.49
74230;BME280;62589;12.568;99.958;2024-03-22T06:14:40;100599.69;;;37.10;42.95
74230;BME280;62589;12.568;99.958;2024-03-22T06:17:09;100590.75;;;37.23;41.73
74230;BME280;62589;12.568;99.958;2024-03-22T06:19:36;100577.78;;;37.05;42.53
74230;BME280;62589;12.568;99.958;2024-03-22T06:22:03;100577.69;;;37.12;42.82
74230;BME280;62589;12.568;99.958;2024-03-22T06:24:30;100574.41;;;37.17;44.03
74230;BME280;62589;12.568;99.958;2024-03-22T06:26:57;100568.53;;;37.08;43.65
74230;BME280;62589;12.568;99.958;2024-03-22T06:29:23;100562.03;;;37.19;44.97
74230;BME280;62589;12.568;99.958;2024-03-22T06:31:50;100568.66;;;37.28;44.68
74230;BME280;62589;12.568;99.958;2024-03-22T06:34:18;100554.41;;;36.92;43.40
74230;BME280;62589;12.568;99.958;2024-03-22T06:36:45;100549.63;;;37.20;43.70
74230;BME280;62589;12.568;99.958;2024-03-22T06:39:13;100533.75;;;37.09;42.93
74230;BME280;62589;12.568;99.958;2024-03-22T06:41:40;100552.50;;;37.12;43.27
74230;BME280;62589;12.568;99.958;2024-03-22T06:44:07;100532.91;;;37.12;43.45
74230;BME280;62589;12.568;99.958;2024-03-22T06:46:35;100526.09;;;37.13;43.74
74230;BME280;62589;12.568;99.958;2024-03-22T06:49:03;100528.97;;;37.06;44.20
74230;BME280;62589;12.568;99.958;2024-03-22T06:51:30;100526.59;;;37.05;44.87
74230;BME280;62589;12.568;99.958;2024-03-22T06:53:56;100520.97;;;37.08;45.02
74230;BME280;62589;12.568;99.958;2024-03-22T06:56:23;100513.25;;;37.16;44.07
74230;BME280;62589;12.568;99.958;2024-03-22T06:58:50;100515.03;;;37.03;44.29
74230;BME280;62589;12.568;99.958;2024-03-22T07:01:16;100513.22;;;36.93;44.63
74230;BME280;62589;12.568;99.958;2024-03-22T07:03:43;100510.25;;;36.76;44.60
74230;BME280;62589;12.568;99.958;2024-03-22T07:06:11;100501.91;;;36.73;44.48
74230;BME280;62589;12.568;99.958;2024-03-22T07:08:38;100487.25;;;36.92;44.71
74230;BME280;62589;12.568;99.958;2024-03-22T07:11:08;100485.66;;;36.91;44.16
74230;BME280;62589;12.568;99.958;2024-03-22T07:13:35;100496.28;;;37.00;45.52
74230;BME280;62589;12.568;99.958;2024-03-22T07:16:02;100484.53;;;37.12;44.60
74230;BME280;62589;12.568;99.958;2024-03-22T07:18:29;100482.56;;;37.09;44.12
74230;BME280;62589;12.568;99.958;2024-03-22T07:20:56;100465.88;;;37.02;44.91
74230;BME280;62589;12.568;99.958;2024-03-22T07:23:27;100463.84;;;36.79;44.77
74230;BME280;62589;12.568;99.958;2024-03-22T07:25:54;100462.44;;;36.94;45.31
74230;BME280;62589;12.568;99.958;2024-03-22T07:28:20;100464.47;;;36.90;43.73
74230;BME280;62589;12.568;99.958;2024-03-22T07:30:47;100457.78;;;36.84;44.43
74230;BME280;62589;12.568;99.958;2024-03-22T07:33:14;100452.66;;;36.79;44.11
74230;BME280;62589;12.568;99.958;2024-03-22T07:35:43;100447.63;;;36.94;44.41
74230;BME280;62589;12.568;99.958;2024-03-22T07:38:10;100449.34;;;36.88;44.97
74230;BME280;62589;12.568;99.958;2024-03-22T07:40:37;100446.59;;;36.84;45.04
74230;BME280;62589;12.568;99.958;2024-03-22T07:43:03;100434.88;;;36.93;45.11
74230;BME280;62589;12.568;99.958;2024-03-22T07:45:34;100432.72;;;37.00;44.71
74230;BME280;62589;12.568;99.958;2024-03-22T07:48:01;100435.97;;;36.99;45.30
74230;BME280;62589;12.568;99.958;2024-03-22T07:50:40;100428.28;;;37.03;45.33
74230;BME280;62589;12.568;99.958;2024-03-22T07:53:07;100424.47;;;36.93;45.15
74230;BME280;62589;12.568;99.958;2024-03-22T07:55:34;100430.63;;;36.81;45.55
74230;BME280;62589;12.568;99.958;2024-03-22T07:58:01;100417.28;;;36.92;46.35
74230;BME280;62589;12.568;99.958;2024-03-22T08:00:28;100419.03;;;36.82;45.14
74230;BME280;62589;12.568;99.958;2024-03-22T08:02:55;100404.00;;;36.73;46.51
74230;BME280;62589;12.568;99.958;2024-03-22T08:05:21;100399.06;;;36.80;46.66
74230;BME280;62589;12.568;99.958;2024-03-22T08:07:48;100401.84;;;36.57;46.34
74230;BME280;62589;12.568;99.958;2024-03-22T08:10:14;100392.84;;;36.42;46.94
74230;BME280;62589;12.568;99.958;2024-03-22T08:12:41;100396.56;;;36.36;46.50
74230;BME280;62589;12.568;99.958;2024-03-22T08:15:08;100398.53;;;36.62;46.24
74230;BME280;62589;12.568;99.958;2024-03-22T08:17:35;100387.00;;;36.33;47.53
74230;BME280;62589;12.568;99.958;2024-03-22T08:20:03;100390.44;;;36.44;47.67
74230;BME280;62589;12.568;99.958;2024-03-22T08:22:30;100375.84;;;36.33;47.67
74230;BME280;62589;12.568;99.958;2024-03-22T08:24:57;100383.63;;;36.45;48.02
74230;BME280;62589;12.568;99.958;2024-03-22T08:27:23;100384.41;;;36.46;47.45
74230;BME280;62589;12.568;99.958;2024-03-22T08:29:50;100390.09;;;36.39;48.25
74230;BME280;62589;12.568;99.958;2024-03-22T08:32:19;100369.91;;;36.55;48.12
74230;BME280;62589;12.568;99.958;2024-03-22T08:34:46;100376.97;;;36.63;48.20
74230;BME280;62589;12.568;99.958;2024-03-22T08:37:12;100369.91;;;36.55;47.68
74230;BME280;62589;12.568;99.958;2024-03-22T08:39:39;100361.34;;;36.38;48.83
74230;BME280;62589;12.568;99.958;2024-03-22T08:42:07;100368.19;;;36.61;48.27
74230;BME280;62589;12.568;99.958;2024-03-22T08:44:35;100367.81;;;36.35;48.54
74230;BME280;62589;12.568;99.958;2024-03-22T08:47:03;100358.31;;;36.56;48.54
74230;BME280;62589;12.568;99.958;2024-03-22T08:49:29;100360.22;;;36.59;48.14
74230;BME280;62589;12.568;99.958;2024-03-22T08:51:56;100351.50;;;36.57;47.89
74230;BME280;62589;12.568;99.958;2024-03-22T08:54:23;100363.97;;;36.53;48.04
74230;BME280;62589;12.568;99.958;2024-03-22T08:56:49;100367.66;;;36.46;47.93
74230;BME280;62589;12.568;99.958;2024-03-22T08:59:16;100357.72;;;36.41;48.14
74230;BME280;62589;12.568;99.958;2024-03-22T09:01:42;100357.78;;;36.38;48.24
74230;BME280;62589;12.568;99.958;2024-03-22T09:04:09;100368.28;;;36.30;48.16
74230;BME280;62589;12.568;99.958;2024-03-22T09:06:36;100371.19;;;36.20;48.13
74230;BME280;62589;12.568;99.958;2024-03-22T09:09:02;100358.00;;;36.20;47.97
74230;BME280;62589;12.568;99.958;2024-03-22T09:11:29;100366.69;;;36.29;48.56
74230;BME280;62589;12.568;99.958;2024-03-22T09:13:56;100364.53;;;36.40;48.95
74230;BME280;62589;12.568;99.958;2024-03-22T09:16:23;100370.88;;;36.44;48.93
74230;BME280;62589;12.568;99.958;2024-03-22T09:18:50;100369.81;;;36.35;49.49
74230;BME280;62589;12.568;99.958;2024-03-22T09:21:17;100359.31;;;36.42;49.24
74230;BME280;62589;12.568;99.958;2024-03-22T09:23:43;100381.94;;;36.52;49.19
74230;BME280;62589;12.568;99.958;2024-03-22T09:26:11;100375.47;;;36.31;49.18
74230;BME280;62589;12.568;99.958;2024-03-22T09:28:38;100379.44;;;36.00;50.09
74230;BME280;62589;12.568;99.958;2024-03-22T09:31:05;100379.28;;;36.14;49.82
74230;BME280;62589;12.568;99.958;2024-03-22T09:33:35;100372.16;;;36.09;50.21
74230;BME280;62589;12.568;99.958;2024-03-22T09:36:02;100370.91;;;36.14;50.19
74230;BME280;62589;12.568;99.958;2024-03-22T09:38:29;100383.38;;;36.06;50.66
74230;BME280;62589;12.568;99.958;2024-03-22T09:40:55;100374.41;;;35.91;50.84
74230;BME280;62589;12.568;99.958;2024-03-22T09:43:22;100388.25;;;35.98;50.90
74230;BME280;62589;12.568;99.958;2024-03-22T09:45:52;100388.41;;;35.88;51.57
74230;BME280;62589;12.568;99.958;2024-03-22T09:48:20;100394.41;;;35.86;51.32
74230;BME280;62589;12.568;99.958;2024-03-22T09:50:47;100395.72;;;35.74;52.35
74230;BME280;62589;12.568;99.958;2024-03-22T09:53:19;100402.44;;;35.80;52.05
74230;BME280;62589;12.568;99.958;2024-03-22T09:55:47;100405.25;;;35.80;53.89
74230;BME280;62589;12.568;99.958;2024-03-22T09:58:14;100412.50;;;35.74;54.58
74230;BME280;62589;12.568;99.958;2024-03-22T10:00:43;100410.16;;;35.69;55.01
74230;BME280;62589;12.568;99.958;2024-03-22T10:03:10;100417.41;;;35.60;54.96
74230;BME280;62589;12.568;99.958;2024-03-22T10:05:37;100404.69;;;35.55;54.27
74230;BME280;62589;12.568;99.958;2024-03-22T10:08:04;100408.81;;;35.43;54.40
74230;BME280;62589;12.568;99.958;2024-03-22T10:10:34;100395.34;;;35.35;54.56
74230;BME280;62589;12.568;99.958;2024-03-22T10:13:01;100401.50;;;35.15;55.98
74230;BME280;62589;12.568;99.958;2024-03-22T10:15:28;100402.94;;;35.34;55.52
74230;BME280;62589;12.568;99.958;2024-03-22T10:17:59;100408.69;;;35.13;58.29
74230;BME280;62589;12.568;99.958;2024-03-22T10:20:26;100397.50;;;35.17;57.86
74230;BME280;62589;12.568;99.958;2024-03-22T10:22:56;100419.75;;;35.24;57.37
74230;BME280;62589;12.568;99.958;2024-03-22T10:25:27;100415.56;;;35.01;58.08
74230;BME280;62589;12.568;99.958;2024-03-22T10:27:55;100417.06;;;35.13;57.61
74230;BME280;62589;12.568;99.958;2024-03-22T10:30:23;100413.50;;;35.12;57.35
74230;BME280;62589;12.568;99.958;2024-03-22T10:32:49;100423.50;;;35.06;56.96
74230;BME280;62589;12.568;99.958;2024-03-22T10:35:16;100424.34;;;35.03;57.58
74230;BME280;62589;12.568;99.958;2024-03-22T10:37:43;100427.06;;;35.10;57.31
74230;BME280;62589;12.568;99.958;2024-03-22T10:40:11;100439.34;;;35.17;57.15
74230;BME280;62589;12.568;99.958;2024-03-22T10:42:39;100440.22;;;35.10;57.51
74230;BME280;62589;12.568;99.958;2024-03-22T10:45:08;100425.19;;;34.93;57.95
74230;BME280;62589;12.568;99.958;2024-03-22T10:47:36;100428.84;;;34.90;58.46
74230;BME280;62589;12.568;99.958;2024-03-22T10:50:08;100444.03;;;34.82;58.81
74230;BME280;62589;12.568;99.958;2024-03-22T10:52:54;100446.66;;;35.03;58.07
74230;BME280;62589;12.568;99.958;2024-03-22T10:55:32;100444.69;;;34.97;57.89
74230;BME280;62589;12.568;99.958;2024-03-22T10:57:59;100449.19;;;34.84;59.10
74230;BME280;62589;12.568;99.958;2024-03-22T11:00:31;100455.66;;;34.70;59.61
74230;BME280;62589;12.568;99.958;2024-03-22T11:02:58;100444.25;;;34.43;60.76
74230;BME280;62589;12.568;99.958;2024-03-22T11:05:26;100453.31;;;34.58;59.98
74230;BME280;62589;12.568;99.958;2024-03-22T11:08:00;100455.78;;;34.49;60.64
74230;BME280;62589;12.568;99.958;2024-03-22T11:10:36;100449.38;;;34.52;59.99
74230;BME280;62589;12.568;99.958;2024-03-22T11:13:06;100446.22;;;34.46;59.96
74230;BME280;62589;12.568;99.958;2024-03-22T11:15:33;100463.38;;;34.37;60.13
74230;BME280;62589;12.568;99.958;2024-03-22T11:18:01;100474.03;;;34.60;59.32
74230;BME280;62589;12.568;99.958;2024-03-22T11:20:30;100477.63;;;34.54;59.64
74230;BME280;62589;12.568;99.958;2024-03-22T11:22:57;100487.59;;;34.55;59.52
74230;BME280;62589;12.568;99.958;2024-03-22T11:25:24;100479.19;;;34.62;59.09
74230;BME280;62589;12.568;99.958;2024-03-22T11:27:50;100483.56;;;34.63;59.27
74230;BME280;62589;12.568;99.958;2024-03-22T11:30:17;100494.84;;;34.34;60.44
74230;BME280;62589;12.568;99.958;2024-03-22T11:32:44;100495.63;;;34.45;59.80
74230;BME280;62589;12.568;99.958;2024-03-22T11:35:12;100489.97;;;34.53;59.76
74230;BME280;62589;12.568;99.958;2024-03-22T11:37:39;100493.94;;;34.62;58.98
74230;BME280;62589;12.568;99.958;2024-03-22T11:40:09;100501.88;;;34.67;59.32
74230;BME280;62589;12.568;99.958;2024-03-22T11:42:41;100494.44;;;34.43;59.89
74230;BME280;62589;12.568;99.958;2024-03-22T11:45:10;100508.34;;;34.46;59.85
74230;BME280;62589;12.568;99.958;2024-03-22T11:47:37;100505.50;;;34.54;59.52
74230;BME280;62589;12.568;99.958;2024-03-22T11:50:04;100507.88;;;34.59;59.80
74230;BME280;62589;12.568;99.958;2024-03-22T11:52:31;100511.16;;;34.46;60.46
74230;BME280;62589;12.568;99.958;2024-03-22T11:54:58;100506.69;;;34.56;59.87
74230;BME280;62589;12.568;99.958;2024-03-22T11:57:25;100510.66;;;34.59;60.51
74230;BME280;62589;12.568;99.958;2024-03-22T11:59:51;100525.09;;;34.43;60.76
74230;BME280;62589;12.568;99.958;2024-03-22T12:02:18;100533.47;;;34.39;60.65
74230;BME280;62589;12.568;99.958;2024-03-22T12:04:46;100530.72;;;34.25;61.30
74230;BME280;62589;12.568;99.958;2024-03-22T12:07:14;100541.44;;;34.37;60.99
74230;BME280;62589;12.568;99.958;2024-03-22T12:09:44;100543.03;;;34.31;61.44
74230;BME280;62589;12.568;99.958;2024-03-22T12:12:13;100550.97;;;34.43;60.61
74230;BME280;62589;12.568;99.958;2024-03-22T12:14:40;100561.75;;;34.34;61.71
74230;BME280;62589;12.568;99.958;2024-03-22T12:17:07;100558.56;;;34.39;61.74
74230;BME280;62589;12.568;99.958;2024-03-22T12:19:34;100544.25;;;34.20;62.58
74230;BME280;62589;12.568;99.958;2024-03-22T12:22:01;100554.19;;;34.24;62.30
74230;BME280;62589;12.568;99.958;2024-03-22T12:24:32;100556.19;;;34.24;62.30
74230;BME280;62589;12.568;99.958;2024-03-22T12:26:59;100562.94;;;34.30;61.90
74230;BME280;62589;12.568;99.958;2024-03-22T12:29:25;100555.03;;;34.10;62.09
74230;BME280;62589;12.568;99.958;2024-03-22T12:31:52;100560.97;;;34.23;61.69
74230;BME280;62589;12.568;99.958;2024-03-22T12:34:19;100569.34;;;34.09;62.30
74230;BME280;62589;12.568;99.958;2024-03-22T12:36:45;100566.16;;;34.10;62.29
74230;BME280;62589;12.568;99.958;2024-03-22T12:39:12;100577.28;;;34.25;61.88
74230;BME280;62589;12.568;99.958;2024-03-22T12:41:39;100572.91;;;34.20;62.05